Earlsboro, OK (74840)

3:13 PM CDT on July 23, 2014 (GMT -0500)
Northwood (KOKSEMIN6) Elev 909 ft | 35.25 °N, 96.69 °W | Change Station

Current weather conditions updated 8 seconds ago

Overcast
Overcast
93.7 °F
Feels Like 108 °F
N
4.0
Wind Variable Wind from WNW
Gusts 4.0 mph

Today is forecast to be Warmer than yesterday.

Today
High -- | Low -- °F
--% Chance of Precip.
Yesterday
High -- | Low -- °F
Precip. -- in
6:29 AM 8:37 PM
Waning Crescent, 9% visible
Pressure 30.11 in
Visibility 10.0 miles
Clouds Clear
Heat Index 108 °F
Dew Point 77 °F
Humidity 58%
Rainfall 0.00 in
Snow Depth Not available.
UV 3.4 out of 12
Pollen 4.80 out of 12
Air Quality Not available.
Flu Activity Not available.
METAR KSNL 231955Z AUTO 31004KT 10SM CLR 36/26 A3011 RMK AO2 LTG DSNT N AND NE

More Conditions Fewer Conditions

Pressure 30.11 in
Visibility 10.0 miles
Clouds Clear
Heat Index 108 °F
Dew Point 77 °F
Humidity 58%
Rainfall 0.00 in
Snow Depth Not available.
UV 3.4 out of 12
Pollen 4.80 out of 12
Air Quality Not available.
Flu Activity Not available.
METAR KSNL 231955Z AUTO 31004KT 10SM CLR 36/26 A3011 RMK AO2 LTG DSNT N AND NE

More Conditions Fewer Conditions

10-Day Weather Forecast

Almanac

Astronomy

Jul. 23, 2014 Rise Set
Actual Time 6:29 AM CDT 8:37 PM CDT
Civil Twilight 6:00 AM CDT 9:06 PM CDT
Nautical Twilight 5:26 AM CDT 9:40 PM CDT
Astronomical Twilight 4:48 AM CDT 10:18 PM CDT
Moon 3:48 AM CDT 6:07 PM CDT
Length of Visible Light 15h 05m
Length of Day
14h 08m
Tomorrow will be 1m 25s shorter.
Waning Crescent, 9% of the Moon is Illuminated
Today
Waning Crescent
Jul 26
New
Aug 3
First Quarter
Aug 10
Full
Aug 17
Last Quarter

Today's Extremes

State Highs State Lows

Community

WunderPhotos

Upload Photos

1,736,755 photos uploaded!

Nearby

Snow Depth

Station Depth Elevation
No new snow has been reported.

Earthquake Activity

City Distance Mag. Time & Date
Spencer, Oklahoma 40 miles 2.7 4:56 PM CDT
2014-07-18
Helena, Oklahoma 122 miles 3.2 8:41 AM CDT
2014-07-18
Guthrie, Oklahoma 51 miles 2.9 8:59 PM CDT
2014-07-17
Perry, Oklahoma 67 miles 2.8 8:37 PM CDT
2014-07-17
Minimum magnitude displayed is 2.5.

Coastal Water Temperatures

Place Temperature
No Stations Reporting

Nearby Weather Stations

Station Location Temp. Heat Index Dew Point Humidity Wind Precip. Elev Updated Type
Northwood, Seminole, OK 93.7 °F 108 °F 77 °F 58% WNW  at  4.0 mph 0.00 in / hr 909 ft 3:13 PM CDT Rapid Fire
Strothers & Harvey Road SE, Seminole, OK 92.9 °F 102 °F 73 °F 53% WNW  at  2.0 mph 0.00 in / hr 955 ft 3:12 PM CDT Normal
ARLINGTON, OK (6 mi N of Prague), Prague, OK 92.5 °F 107 °F 77 °F 61% East  at  0.0 mph 0.00 in / hr 1020 ft 3:13 PM CDT Rapid Fire

Show More Stations Show Fewer Stations